createdAt,value
2023-01-21T00:00:11.986Z,0.90
2023-01-21T00:00:45.706Z,0.90
2023-01-21T00:01:19.730Z,0.90
2023-01-21T00:01:51.537Z,1.00
2023-01-21T00:02:23.451Z,1.00
2023-01-21T00:02:56.230Z,1.00
2023-01-21T00:03:28.139Z,1.10
2023-01-21T00:04:00.041Z,1.10
2023-01-21T00:04:34.366Z,1.20
2023-01-21T00:05:06.849Z,1.20
2023-01-21T00:05:39.655Z,1.20
2023-01-21T00:06:12.267Z,1.20
2023-01-21T00:06:44.056Z,1.30
2023-01-21T00:07:16.896Z,1.30
2023-01-21T00:07:48.722Z,1.30
2023-01-21T00:08:20.658Z,1.40
2023-01-21T00:08:53.454Z,1.40
2023-01-21T00:09:25.279Z,1.40
2023-01-21T00:09:57.091Z,1.40
2023-01-21T00:10:29.874Z,1.40
2023-01-21T00:11:05.857Z,1.30
2023-01-21T00:11:38.651Z,1.30
2023-01-21T00:12:10.445Z,1.30
2023-01-21T00:12:43.237Z,1.40
2023-01-21T00:13:15.313Z,1.40
2023-01-21T00:13:47.857Z,1.40
2023-01-21T00:14:21.020Z,1.40
2023-01-21T00:14:53.781Z,1.40
2023-01-21T00:15:25.639Z,1.40
2023-01-21T00:15:57.559Z,1.30
2023-01-21T00:16:29.426Z,1.40
2023-01-21T00:17:02.342Z,1.30
2023-01-21T00:17:36.023Z,1.30
2023-01-21T00:18:08.032Z,1.30
2023-01-21T00:18:40.908Z,1.30
2023-01-21T00:19:12.903Z,1.30
2023-01-21T00:19:44.719Z,1.30
2023-01-21T00:20:18.162Z,1.30
2023-01-21T00:20:50.248Z,1.20
2023-01-21T00:21:22.179Z,1.20
2023-01-21T00:21:54.972Z,1.30
2023-01-21T00:22:26.874Z,1.30
2023-01-21T00:22:58.693Z,1.50
2023-01-21T00:23:31.523Z,1.70
2023-01-21T00:24:03.559Z,2.00
2023-01-21T00:24:35.436Z,2.30
2023-01-21T00:25:09.201Z,2.40
2023-01-21T00:25:41.005Z,2.50
2023-01-21T00:26:12.975Z,2.50
2023-01-21T00:26:45.923Z,2.50
2023-01-21T00:27:17.836Z,2.40
2023-01-21T00:27:49.719Z,2.30
2023-01-21T00:28:22.531Z,2.20
2023-01-21T00:28:54.355Z,2.10
2023-01-21T00:29:27.537Z,2.10
2023-01-21T00:30:00.266Z,2.10
2023-01-21T00:30:32.193Z,2.00
2023-01-21T00:31:05.800Z,2.00
2023-01-21T00:31:38.713Z,2.00
2023-01-21T00:32:10.612Z,2.00
2023-01-21T00:32:43.455Z,2.00
2023-01-21T00:33:15.248Z,2.00
2023-01-21T00:33:48.165Z,1.90
2023-01-21T00:34:20.926Z,1.90
2023-01-21T00:34:52.761Z,1.90
2023-01-21T00:35:24.552Z,1.90
2023-01-21T00:36:01.461Z,1.80
2023-01-21T00:36:33.266Z,1.70
2023-01-21T00:37:05.179Z,1.70
2023-01-21T00:37:38.049Z,1.60
2023-01-21T00:38:09.858Z,1.50
2023-01-21T00:38:41.688Z,1.30
2023-01-21T00:39:14.507Z,1.20
2023-01-21T00:39:46.310Z,1.10
2023-01-21T00:40:18.544Z,1.00
2023-01-21T00:40:51.542Z,1.00
2023-01-21T00:41:24.372Z,1.00
2023-01-21T00:41:56.168Z,1.00
2023-01-21T00:42:28.951Z,1.00
2023-01-21T00:43:00.729Z,1.00
2023-01-21T00:43:32.803Z,1.00
2023-01-21T00:44:06.438Z,0.90
2023-01-21T00:44:39.608Z,0.90
2023-01-21T00:45:11.484Z,0.90
2023-01-21T00:45:44.269Z,0.90
2023-01-21T00:46:16.349Z,0.90
2023-01-21T00:46:48.176Z,0.90
2023-01-21T00:47:19.982Z,1.00
2023-01-21T00:47:52.772Z,1.00
2023-01-21T00:48:25.261Z,1.00
2023-01-21T00:48:57.218Z,1.00
2023-01-21T00:49:29.999Z,1.00
2023-01-21T00:50:01.854Z,1.00
2023-01-21T00:50:33.715Z,1.00
2023-01-21T00:51:06.896Z,1.00
2023-01-21T00:51:38.733Z,1.00
2023-01-21T00:52:11.550Z,1.00
2023-01-21T00:52:43.511Z,0.80
2023-01-21T00:53:15.317Z,0.90
2023-01-21T00:53:48.139Z,0.90
2023-01-21T00:54:19.999Z,0.90
2023-01-21T00:54:51.815Z,0.90
2023-01-21T00:55:23.668Z,0.90
2023-01-21T00:56:00.213Z,0.80
2023-01-21T00:56:32.205Z,0.80
2023-01-21T00:57:06.670Z,0.70
2023-01-21T00:57:39.442Z,0.70
2023-01-21T00:58:11.485Z,0.70
2023-01-21T00:58:43.455Z,0.70
2023-01-21T00:59:16.414Z,0.70
2023-01-21T00:59:49.695Z,0.70
2023-01-21T01:00:21.739Z,0.70
2023-01-21T01:01:01.399Z,0.70
2023-01-21T01:01:37.809Z,0.70
2023-01-21T01:02:09.834Z,0.70
2023-01-21T01:02:41.647Z,0.70
2023-01-21T01:03:14.472Z,0.70
2023-01-21T01:03:47.482Z,0.60
2023-01-21T01:04:20.273Z,0.60
2023-01-21T01:04:52.079Z,0.60
2023-01-21T01:05:24.045Z,0.60
2023-01-21T01:05:56.838Z,0.70
2023-01-21T01:06:28.659Z,0.70
2023-01-21T01:07:00.500Z,0.60
2023-01-21T01:07:33.249Z,0.60
2023-01-21T01:08:05.261Z,0.60
2023-01-21T01:08:37.699Z,0.60
2023-01-21T01:09:12.752Z,0.70
2023-01-21T01:09:44.550Z,0.70
2023-01-21T01:10:17.472Z,0.70
2023-01-21T01:10:50.303Z,0.80
2023-01-21T01:11:22.210Z,0.80
2023-01-21T01:11:55.037Z,0.80
2023-01-21T01:12:28.440Z,0.80
2023-01-21T01:13:00.984Z,0.80
2023-01-21T01:13:34.675Z,0.80
2023-01-21T01:14:06.545Z,0.80
2023-01-21T01:14:39.319Z,0.80
2023-01-21T01:15:12.599Z,0.90
2023-01-21T01:15:44.416Z,0.90
2023-01-21T01:16:17.597Z,0.80
2023-01-21T01:16:49.871Z,0.90
2023-01-21T01:17:21.653Z,0.80
2023-01-21T01:17:54.417Z,0.80
2023-01-21T01:18:27.366Z,0.80
2023-01-21T01:18:59.251Z,0.80
2023-01-21T01:19:32.033Z,0.80
2023-01-21T01:20:04.844Z,0.80
2023-01-21T01:20:36.634Z,0.90
2023-01-21T01:21:12.277Z,0.90
2023-01-21T01:21:44.254Z,0.90
2023-01-21T01:22:16.115Z,0.90
2023-01-21T01:22:48.858Z,0.90
2023-01-21T01:23:20.691Z,0.90
2023-01-21T01:23:54.595Z,0.90
2023-01-21T01:24:26.454Z,0.90
2023-01-21T01:24:58.359Z,0.80
2023-01-21T01:25:30.133Z,0.80
2023-01-21T01:26:04.739Z,0.80
2023-01-21T01:26:36.597Z,0.80
2023-01-21T01:27:08.441Z,0.80
2023-01-21T01:27:41.193Z,0.80
2023-01-21T01:28:13.038Z,0.80
2023-01-21T01:28:45.573Z,0.80
2023-01-21T01:29:18.525Z,0.80
2023-01-21T01:29:50.419Z,1.00
2023-01-21T01:30:23.589Z,0.80
2023-01-21T01:30:57.096Z,0.80
2023-01-21T01:31:28.970Z,0.80
2023-01-21T01:32:00.822Z,0.80
2023-01-21T01:32:33.590Z,0.80
2023-01-21T01:33:05.407Z,0.80
2023-01-21T01:33:37.216Z,0.80
2023-01-21T01:34:09.996Z,0.90
2023-01-21T01:34:41.832Z,0.80
2023-01-21T01:35:13.769Z,0.90
2023-01-21T01:35:47.879Z,1.10
2023-01-21T01:36:23.515Z,0.90
2023-01-21T01:36:56.291Z,0.90
2023-01-21T01:37:28.097Z,0.90
2023-01-21T01:38:07.681Z,1.00
2023-01-21T01:38:40.504Z,1.00
2023-01-21T01:39:12.353Z,1.00
2023-01-21T01:39:44.142Z,1.00
2023-01-21T01:40:17.237Z,1.00
2023-01-21T01:40:50.875Z,0.90
2023-01-21T01:41:25.336Z,0.90
2023-01-21T01:41:57.439Z,1.00
2023-01-21T01:42:29.353Z,0.90
2023-01-21T01:43:02.245Z,0.90
2023-01-21T01:43:56.204Z,0.90
2023-01-21T01:45:05.794Z,0.80
2023-01-21T01:45:39.135Z,0.90
2023-01-21T01:46:10.975Z,0.80
2023-01-21T01:46:43.885Z,0.90
2023-01-21T01:47:16.248Z,0.90
2023-01-21T01:47:58.032Z,0.90
2023-01-21T01:48:33.540Z,0.90
2023-01-21T01:49:12.243Z,0.90
2023-01-21T01:49:44.376Z,0.90
2023-01-21T01:50:20.568Z,0.90
2023-01-21T01:50:52.504Z,0.90
2023-01-21T01:51:30.544Z,0.80
2023-01-21T01:52:05.864Z,0.80
2023-01-21T01:52:38.756Z,0.90
2023-01-21T01:53:12.622Z,0.80
2023-01-21T01:53:47.717Z,0.80
2023-01-21T01:54:24.537Z,0.80
2023-01-21T01:54:58.218Z,1.00
2023-01-21T01:55:33.141Z,0.80
2023-01-21T01:56:05.660Z,0.80
2023-01-21T01:56:39.358Z,0.80
2023-01-21T01:57:16.039Z,0.70
2023-01-21T01:57:52.692Z,0.70
2023-01-21T01:58:25.941Z,0.70
2023-01-21T01:58:57.982Z,0.70
2023-01-21T01:59:31.833Z,0.70
2023-01-21T02:00:07.412Z,0.80
2023-01-21T02:00:40.603Z,0.80
2023-01-21T02:01:12.587Z,0.70
2023-01-21T02:01:45.423Z,0.70
2023-01-21T02:02:19.840Z,0.70
2023-01-21T02:03:12.211Z,0.70
2023-01-21T02:03:50.645Z,0.70
2023-01-21T02:04:28.116Z,0.70
2023-01-21T02:05:04.253Z,0.80
2023-01-21T02:05:37.434Z,0.70
2023-01-21T02:06:10.255Z,0.70
2023-01-21T02:06:43.318Z,0.70
2023-01-21T02:07:15.849Z,0.70
2023-01-21T02:07:48.755Z,0.80
2023-01-21T02:08:20.903Z,0.80
2023-01-21T02:08:53.751Z,0.80
2023-01-21T02:09:29.868Z,0.80
2023-01-21T02:10:02.398Z,0.80
2023-01-21T02:10:34.663Z,0.80
2023-01-21T02:11:14.231Z,0.80
2023-01-21T02:11:46.140Z,0.80
2023-01-21T02:12:18.172Z,0.80
2023-01-21T02:12:51.023Z,0.80
2023-01-21T02:13:23.521Z,0.90
2023-01-21T02:13:58.003Z,0.80
2023-01-21T02:14:32.696Z,0.90
2023-01-21T02:15:05.811Z,0.80
2023-01-21T02:15:46.325Z,0.90
2023-01-21T02:16:59.331Z,0.90
2023-01-21T02:17:45.935Z,0.90
2023-01-21T02:18:27.681Z,0.80
2023-01-21T02:19:15.696Z,0.70
2023-01-21T02:20:31.426Z,0.70
2023-01-21T02:21:24.637Z,0.70
2023-01-21T02:22:06.452Z,0.70
2023-01-21T02:22:46.678Z,0.70
2023-01-21T02:23:25.512Z,0.70
2023-01-21T02:24:34.162Z,0.80
2023-01-21T02:25:36.293Z,0.80
2023-01-21T02:26:44.770Z,0.80
2023-01-21T02:27:37.087Z,0.80
2023-01-21T02:28:47.754Z,0.80
2023-01-21T02:29:49.601Z,0.80
2023-01-21T02:30:41.391Z,0.70
2023-01-21T02:31:41.824Z,0.70
2023-01-21T02:32:39.686Z,0.70
2023-01-21T02:33:57.035Z,0.70
2023-01-21T02:34:36.345Z,0.80
2023-01-21T02:35:14.225Z,0.80
2023-01-21T02:35:54.908Z,0.80
2023-01-21T02:36:37.207Z,0.80
2023-01-21T02:37:12.375Z,0.90
2023-01-21T02:37:50.093Z,0.80
2023-01-21T02:38:30.642Z,0.90
2023-01-21T02:39:11.106Z,0.90
2023-01-21T02:40:01.780Z,0.80
2023-01-21T02:40:38.632Z,0.90
2023-01-21T02:41:20.070Z,0.90
2023-01-21T02:42:03.660Z,0.80
2023-01-21T02:42:42.446Z,0.80
2023-01-21T02:43:24.180Z,0.80
2023-01-21T02:44:03.702Z,0.80
2023-01-21T02:44:39.564Z,0.80
2023-01-21T02:45:20.966Z,0.80
2023-01-21T02:45:59.441Z,0.80
2023-01-21T02:46:39.754Z,0.80
2023-01-21T02:47:23.399Z,0.80
2023-01-21T02:48:05.745Z,0.80
2023-01-21T02:48:43.292Z,0.80
2023-01-21T02:49:22.409Z,0.70
2023-01-21T02:49:58.537Z,0.80
2023-01-21T02:50:34.698Z,0.80
2023-01-21T02:51:06.614Z,0.80
2023-01-21T02:51:38.490Z,0.70
2023-01-21T02:52:19.049Z,0.70
2023-01-21T02:52:57.778Z,0.70
2023-01-21T02:53:32.276Z,0.70
2023-01-21T02:54:13.987Z,0.70
2023-01-21T02:54:53.919Z,0.70
2023-01-21T02:55:30.664Z,0.70
2023-01-21T02:56:06.993Z,0.70
2023-01-21T02:56:38.786Z,0.80
2023-01-21T02:57:14.132Z,0.80
2023-01-21T02:57:51.392Z,0.80
2023-01-21T02:58:28.983Z,0.80
2023-01-21T02:59:03.531Z,0.80
2023-01-21T02:59:36.873Z,0.80
2023-01-21T03:00:13.467Z,0.80
2023-01-21T03:00:57.221Z,0.80
2023-01-21T03:01:41.081Z,0.80
2023-01-21T03:02:23.544Z,0.80
2023-01-21T03:03:15.369Z,0.80
2023-01-21T03:04:17.608Z,0.80
2023-01-21T03:05:04.803Z,0.80
2023-01-21T03:05:53.840Z,0.80
2023-01-21T03:06:41.187Z,0.80
2023-01-21T03:07:22.197Z,0.70
2023-01-21T03:08:04.053Z,0.70
2023-01-21T03:08:41.874Z,0.70
2023-01-21T03:09:22.603Z,0.80
2023-01-21T03:09:59.526Z,0.80
2023-01-21T03:10:36.969Z,0.90
2023-01-21T03:11:15.532Z,0.90
2023-01-21T03:11:59.379Z,0.90
2023-01-21T03:12:39.850Z,0.90
2023-01-21T03:13:39.015Z,1.00
2023-01-21T03:14:39.776Z,1.00
2023-01-21T03:15:34.584Z,1.10
2023-01-21T03:16:29.372Z,1.00
2023-01-21T03:17:08.089Z,1.00
2023-01-21T03:17:46.570Z,1.00
2023-01-21T03:18:22.956Z,1.00
2023-01-21T03:18:57.973Z,1.00
2023-01-21T03:19:41.512Z,1.00
2023-01-21T03:20:20.827Z,1.00
2023-01-21T03:20:58.337Z,1.00
2023-01-21T03:21:32.348Z,0.90
2023-01-21T03:22:09.110Z,0.90
2023-01-21T03:22:42.375Z,0.90
2023-01-21T03:23:17.919Z,0.90
2023-01-21T03:23:52.786Z,0.90
2023-01-21T03:24:26.524Z,0.90
2023-01-21T03:24:59.767Z,0.80
2023-01-21T03:25:33.720Z,0.80
2023-01-21T03:26:08.520Z,0.80
2023-01-21T03:26:45.561Z,0.80
2023-01-21T03:27:22.520Z,0.80
2023-01-21T03:27:57.521Z,0.80
2023-01-21T03:28:33.491Z,0.80
2023-01-21T03:29:15.001Z,0.70
2023-01-21T03:29:50.646Z,0.70
2023-01-21T03:30:25.431Z,0.70
2023-01-21T03:31:03.892Z,0.60
2023-01-21T03:31:39.310Z,0.60
2023-01-21T03:32:15.287Z,0.60
2023-01-21T03:32:52.367Z,0.70
2023-01-21T03:33:25.908Z,0.70
2023-01-21T03:34:00.710Z,0.70
2023-01-21T03:34:37.187Z,0.80
2023-01-21T03:35:12.687Z,0.80
2023-01-21T03:35:49.614Z,0.80
2023-01-21T03:36:26.859Z,0.80
2023-01-21T03:37:02.912Z,0.90
2023-01-21T03:37:41.130Z,0.90
2023-01-21T03:38:17.813Z,0.90
2023-01-21T03:38:53.141Z,0.80
2023-01-21T03:39:34.446Z,0.80
2023-01-21T03:40:16.040Z,0.80
2023-01-21T03:40:53.267Z,0.80
2023-01-21T03:41:33.446Z,0.70
2023-01-21T03:42:05.379Z,0.70
2023-01-21T03:42:38.365Z,0.70
2023-01-21T03:43:10.784Z,0.70
2023-01-21T03:43:42.918Z,0.70
2023-01-21T03:44:15.808Z,0.70
2023-01-21T03:44:47.681Z,0.70
2023-01-21T03:45:29.839Z,0.80
2023-01-21T03:46:07.933Z,0.80
2023-01-21T03:46:46.126Z,0.80
2023-01-21T03:47:22.502Z,0.80
2023-01-21T03:47:59.555Z,0.80
2023-01-21T03:48:40.125Z,0.80
2023-01-21T03:49:16.975Z,0.80
2023-01-21T03:49:54.484Z,0.80
2023-01-21T03:50:31.375Z,0.70
2023-01-21T03:51:10.917Z,0.80
2023-01-21T03:51:48.764Z,0.80
2023-01-21T03:52:23.813Z,0.80
2023-01-21T03:52:56.891Z,0.80
2023-01-21T03:53:29.257Z,0.90
2023-01-21T03:54:01.044Z,0.90
2023-01-21T03:54:33.974Z,0.90
2023-01-21T03:55:07.052Z,1.00
2023-01-21T03:55:38.902Z,1.00
2023-01-21T03:56:11.736Z,1.00
2023-01-21T03:56:43.582Z,1.00
2023-01-21T03:57:15.474Z,1.10
2023-01-21T03:57:48.346Z,1.00
2023-01-21T03:58:20.188Z,1.00
2023-01-21T03:58:52.357Z,1.00
2023-01-21T03:59:25.175Z,1.00
2023-01-21T03:59:57.096Z,1.00
2023-01-21T04:00:29.194Z,1.00
2023-01-21T04:01:02.057Z,1.00
2023-01-21T04:01:33.890Z,1.00
2023-01-21T04:02:05.708Z,0.90
2023-01-21T04:02:39.107Z,0.90
2023-01-21T04:03:10.926Z,1.00
2023-01-21T04:03:43.355Z,1.00
2023-01-21T04:04:16.211Z,1.00
2023-01-21T04:04:48.482Z,1.00
2023-01-21T04:05:20.294Z,1.00
2023-01-21T04:05:53.041Z,1.10
2023-01-21T04:06:26.250Z,1.10
2023-01-21T04:06:58.049Z,1.10
2023-01-21T04:07:30.915Z,1.10
2023-01-21T04:08:02.784Z,1.10
2023-01-21T04:08:34.631Z,1.10
2023-01-21T04:09:08.524Z,1.10
2023-01-21T04:09:40.510Z,1.10
2023-01-21T04:10:12.346Z,1.10
2023-01-21T04:10:45.237Z,1.10
2023-01-21T04:11:17.164Z,1.10
2023-01-21T04:11:49.050Z,1.10
2023-01-21T04:12:21.864Z,1.00
2023-01-21T04:12:53.705Z,1.10
2023-01-21T04:13:25.519Z,1.10
2023-01-21T04:13:58.323Z,1.00
2023-01-21T04:14:30.155Z,1.00
2023-01-21T04:15:05.096Z,1.10
2023-01-21T04:15:38.194Z,1.00
2023-01-21T04:16:10.100Z,0.90
2023-01-21T04:16:42.077Z,0.90
2023-01-21T04:17:14.848Z,0.90
2023-01-21T04:17:46.646Z,1.00
2023-01-21T04:18:18.441Z,0.90
2023-01-21T04:18:51.219Z,1.00
2023-01-21T04:19:23.136Z,1.00
2023-01-21T04:19:55.116Z,1.00
2023-01-21T04:20:27.887Z,1.00
2023-01-21T04:20:59.817Z,1.00
2023-01-21T04:21:32.968Z,1.00
2023-01-21T04:22:05.860Z,1.00
2023-01-21T04:22:37.992Z,1.00
2023-01-21T04:23:09.850Z,1.00
2023-01-21T04:23:41.661Z,1.00
2023-01-21T04:24:14.413Z,1.00
2023-01-21T04:24:46.306Z,1.10
2023-01-21T04:25:18.099Z,1.10
2023-01-21T04:25:51.025Z,1.10
2023-01-21T04:26:22.839Z,1.20
2023-01-21T04:26:54.708Z,1.10
2023-01-21T04:27:27.529Z,1.10
2023-01-21T04:27:59.344Z,1.10
2023-01-21T04:28:31.432Z,1.10
2023-01-21T04:29:04.468Z,1.10
2023-01-21T04:29:37.273Z,1.00
2023-01-21T04:30:10.154Z,1.00
2023-01-21T04:30:42.072Z,1.00
2023-01-21T04:31:14.988Z,1.10
2023-01-21T04:31:47.519Z,0.90
2023-01-21T04:32:19.433Z,0.90
2023-01-21T04:32:52.279Z,0.80
2023-01-21T04:33:24.147Z,0.80
2023-01-21T04:33:56.000Z,0.80
2023-01-21T04:34:28.773Z,0.80
2023-01-21T04:35:00.609Z,0.80
2023-01-21T04:35:34.365Z,0.80
2023-01-21T04:36:07.410Z,0.80
2023-01-21T04:36:41.504Z,0.80
2023-01-21T04:37:13.306Z,0.80
2023-01-21T04:37:45.383Z,0.90
2023-01-21T04:38:18.362Z,0.90
2023-01-21T04:38:50.158Z,1.00
2023-01-21T04:39:21.960Z,1.00
2023-01-21T04:39:54.754Z,1.00
2023-01-21T04:40:26.591Z,1.00
2023-01-21T04:40:58.420Z,1.00
2023-01-21T04:41:31.178Z,1.00
2023-01-21T04:42:03.053Z,1.00
2023-01-21T04:42:34.833Z,0.90
2023-01-21T04:43:07.611Z,0.90
2023-01-21T04:43:39.381Z,0.80
2023-01-21T04:44:11.156Z,0.80
2023-01-21T04:44:44.839Z,0.70
2023-01-21T04:45:16.818Z,0.70
2023-01-21T04:45:49.989Z,0.70
2023-01-21T04:46:21.856Z,0.70
2023-01-21T04:46:54.621Z,0.70
2023-01-21T04:47:26.498Z,0.70
2023-01-21T04:47:58.474Z,0.70
2023-01-21T04:48:31.252Z,0.70
2023-01-21T04:49:03.109Z,0.60
2023-01-21T04:49:34.967Z,0.60
2023-01-21T04:50:08.400Z,0.60
2023-01-21T04:50:40.243Z,0.60
2023-01-21T04:51:12.090Z,0.60
2023-01-21T04:51:46.241Z,0.50
2023-01-21T04:52:18.109Z,0.40
2023-01-21T04:52:49.958Z,0.40
2023-01-21T04:53:22.784Z,0.40
2023-01-21T04:53:54.589Z,0.40
2023-01-21T04:54:26.406Z,0.40
2023-01-21T04:54:59.174Z,0.50
2023-01-21T04:55:30.994Z,0.50
2023-01-21T04:56:02.890Z,0.50
2023-01-21T04:56:34.713Z,0.50
2023-01-21T04:57:07.453Z,0.50
2023-01-21T04:57:39.314Z,0.50
2023-01-21T04:58:11.104Z,0.60
2023-01-21T04:58:43.861Z,0.60
2023-01-21T04:59:15.664Z,0.60
2023-01-21T04:59:47.460Z,0.60
2023-01-21T05:00:20.713Z,0.60
2023-01-21T05:00:54.380Z,0.60
2023-01-21T05:01:26.434Z,0.70
2023-01-21T05:01:59.274Z,0.70
2023-01-21T05:02:31.155Z,0.70
2023-01-21T05:03:03.037Z,0.70
2023-01-21T05:03:35.845Z,0.70
2023-01-21T05:04:07.792Z,0.70
2023-01-21T05:04:40.611Z,0.70
2023-01-21T05:05:12.462Z,0.60
2023-01-21T05:05:44.289Z,0.60
2023-01-21T05:06:17.067Z,0.60
2023-01-21T05:06:50.301Z,0.60
2023-01-21T05:07:22.110Z,0.50
2023-01-21T05:07:55.303Z,0.50
2023-01-21T05:08:27.154Z,0.40
2023-01-21T05:08:59.012Z,0.40
2023-01-21T05:09:31.817Z,0.40
2023-01-21T05:10:04.077Z,0.30
2023-01-21T05:10:35.898Z,0.40
2023-01-21T05:11:09.191Z,0.40
2023-01-21T05:11:41.044Z,0.30
2023-01-21T05:12:12.891Z,0.30
2023-01-21T05:12:45.744Z,0.30
2023-01-21T05:13:17.569Z,0.30
2023-01-21T05:13:49.408Z,0.20
2023-01-21T05:14:22.288Z,0.20
2023-01-21T05:14:54.532Z,0.10
2023-01-21T05:15:26.452Z,0.10
2023-01-21T05:16:04.454Z,0.00
2023-01-21T05:16:36.330Z,0.00
2023-01-21T05:17:08.182Z,0.00
2023-01-21T05:17:40.970Z,0.00
2023-01-21T05:18:12.856Z,0.00
2023-01-21T05:18:46.717Z,0.00
2023-01-21T05:19:19.659Z,0.00
2023-01-21T05:19:51.569Z,0.00
2023-01-21T05:20:23.564Z,-0.10
2023-01-21T05:20:56.952Z,-0.10
2023-01-21T05:21:28.810Z,-0.20
2023-01-21T05:22:01.961Z,-0.20
2023-01-21T05:22:34.832Z,-0.30
2023-01-21T05:23:06.705Z,-0.20
2023-01-21T05:23:38.497Z,-0.30
2023-01-21T05:24:11.425Z,-0.30
2023-01-21T05:24:43.259Z,-0.30
2023-01-21T05:25:15.436Z,-0.30
2023-01-21T05:25:49.962Z,-0.30
2023-01-21T05:26:21.893Z,-0.40
2023-01-21T05:26:53.784Z,-0.40
2023-01-21T05:27:26.568Z,-0.40
2023-01-21T05:27:58.414Z,-0.40
2023-01-21T05:28:30.236Z,-0.30
2023-01-21T05:29:03.026Z,-0.30
2023-01-21T05:29:34.847Z,-0.30
2023-01-21T05:30:08.037Z,-0.30
2023-01-21T05:30:42.153Z,-0.30
2023-01-21T05:31:15.998Z,-0.30
2023-01-21T05:31:47.941Z,-0.30
2023-01-21T05:32:21.019Z,-0.30
2023-01-21T05:32:53.603Z,-0.30
2023-01-21T05:33:31.042Z,-0.30
2023-01-21T05:34:03.137Z,-0.20
2023-01-21T05:34:34.949Z,-0.20
2023-01-21T05:35:08.834Z,-0.20
2023-01-21T05:35:40.718Z,-0.20
2023-01-21T05:36:12.820Z,-0.20
2023-01-21T05:36:45.590Z,-0.20
2023-01-21T05:37:18.795Z,-0.20
2023-01-21T05:37:50.802Z,-0.20
2023-01-21T05:38:23.632Z,-0.30
2023-01-21T05:38:55.583Z,-0.30
2023-01-21T05:39:27.428Z,-0.30
2023-01-21T05:40:00.174Z,-0.30
2023-01-21T05:40:32.120Z,-0.30
2023-01-21T05:41:05.888Z,-0.40
2023-01-21T05:41:37.707Z,-0.30
2023-01-21T05:42:09.506Z,-0.30
2023-01-21T05:42:42.322Z,-0.30
2023-01-21T05:43:14.110Z,-0.30
2023-01-21T05:43:45.954Z,-0.30
2023-01-21T05:44:18.774Z,-0.30
2023-01-21T05:44:50.604Z,-0.30
2023-01-21T05:45:22.696Z,-0.20
2023-01-21T05:45:55.781Z,-0.30
2023-01-21T05:46:29.303Z,-0.30
2023-01-21T05:47:01.228Z,-0.30
2023-01-21T05:47:34.048Z,-0.30
2023-01-21T05:48:06.478Z,-0.30
2023-01-21T05:48:38.286Z,-0.30
2023-01-21T05:49:11.096Z,-0.30
2023-01-21T05:49:42.926Z,-0.30
2023-01-21T05:50:15.023Z,-0.20
2023-01-21T05:50:49.276Z,-0.20
2023-01-21T05:51:21.233Z,-0.10
2023-01-21T05:51:53.073Z,-0.10
2023-01-21T05:52:26.313Z,-0.10
2023-01-21T05:52:59.253Z,-0.10
2023-01-21T05:53:31.114Z,-0.10
2023-01-21T05:54:02.973Z,0.00
2023-01-21T05:54:35.721Z,0.00
2023-01-21T05:55:08.195Z,0.00
2023-01-21T05:55:40.040Z,0.00
2023-01-21T05:56:12.829Z,-0.10
2023-01-21T05:56:44.624Z,-0.10
2023-01-21T05:57:16.404Z,-0.10
2023-01-21T05:57:49.162Z,-0.10
2023-01-21T05:58:21.592Z,-0.10
2023-01-21T05:58:54.346Z,0.00
2023-01-21T05:59:26.169Z,0.00
2023-01-21T05:59:58.301Z,0.00
2023-01-21T06:00:31.118Z,0.00
2023-01-21T06:01:03.593Z,0.00
2023-01-21T06:01:35.421Z,0.00
2023-01-21T06:02:08.279Z,0.10
2023-01-21T06:02:40.151Z,0.10
2023-01-21T06:03:11.943Z,0.10
2023-01-21T06:03:44.804Z,0.10
2023-01-21T06:04:16.668Z,0.10
2023-01-21T06:04:48.462Z,0.20
2023-01-21T06:05:21.230Z,0.10
2023-01-21T06:05:53.534Z,0.10
2023-01-21T06:06:25.312Z,0.10
2023-01-21T06:06:58.335Z,0.10
2023-01-21T06:07:31.490Z,0.10
2023-01-21T06:08:03.496Z,0.10
2023-01-21T06:08:36.259Z,0.10
2023-01-21T06:09:08.231Z,0.10
2023-01-21T06:09:40.010Z,0.10
2023-01-21T06:10:12.805Z,0.10
2023-01-21T06:10:44.861Z,0.20
2023-01-21T06:11:16.659Z,0.20
2023-01-21T06:11:49.432Z,0.20
2023-01-21T06:12:23.246Z,0.30
2023-01-21T06:12:56.675Z,0.10
2023-01-21T06:13:28.604Z,0.20
2023-01-21T06:14:00.400Z,0.20
2023-01-21T06:14:33.233Z,0.20
2023-01-21T06:15:06.039Z,0.20
2023-01-21T06:15:37.879Z,0.20
2023-01-21T06:16:10.748Z,0.20
2023-01-21T06:16:42.603Z,0.20
2023-01-21T06:17:14.443Z,0.20
2023-01-21T06:17:47.689Z,0.20
2023-01-21T06:18:19.512Z,0.20
2023-01-21T06:18:51.302Z,0.20
2023-01-21T06:19:24.232Z,0.20
2023-01-21T06:19:56.048Z,0.20
2023-01-21T06:20:30.361Z,0.10
2023-01-21T06:21:02.509Z,0.10
2023-01-21T06:21:34.378Z,0.10
2023-01-21T06:22:07.143Z,0.10
2023-01-21T06:22:40.363Z,0.10
2023-01-21T06:23:13.116Z,0.10
2023-01-21T06:23:45.902Z,0.20
2023-01-21T06:24:17.846Z,0.20
2023-01-21T06:24:49.811Z,0.00
2023-01-21T06:25:22.597Z,-0.10
2023-01-21T06:25:58.573Z,-0.20
2023-01-21T06:26:30.456Z,-0.20
2023-01-21T06:27:03.218Z,-0.20
2023-01-21T06:27:37.175Z,-0.20
2023-01-21T06:28:10.311Z,-0.30
2023-01-21T06:28:43.061Z,-0.30
2023-01-21T06:29:14.909Z,-0.10
2023-01-21T06:29:46.719Z,-0.20
2023-01-21T06:30:18.982Z,-0.20
2023-01-21T06:30:51.976Z,-0.20
2023-01-21T06:31:24.208Z,-0.20
2023-01-21T06:31:56.251Z,-0.30
2023-01-21T06:32:29.056Z,-0.30
2023-01-21T06:33:00.883Z,-0.30
2023-01-21T06:33:32.672Z,-0.40
2023-01-21T06:34:05.458Z,-0.40
2023-01-21T06:34:37.249Z,-0.40
2023-01-21T06:35:09.360Z,-0.50
2023-01-21T06:35:42.119Z,-0.50
2023-01-21T06:36:13.935Z,-0.50
2023-01-21T06:36:45.738Z,-0.50
2023-01-21T06:37:18.509Z,-0.50
2023-01-21T06:37:51.643Z,-0.50
2023-01-21T06:38:23.439Z,-0.50
2023-01-21T06:38:56.222Z,-0.50
2023-01-21T06:39:28.038Z,-0.50
2023-01-21T06:39:59.857Z,-0.50
2023-01-21T06:40:32.669Z,-0.60
2023-01-21T06:41:04.890Z,-0.60
2023-01-21T06:41:36.698Z,-0.60
2023-01-21T06:42:09.412Z,-0.60
2023-01-21T06:42:41.211Z,-0.60
2023-01-21T06:43:13.007Z,-0.60
2023-01-21T06:43:45.758Z,-0.60
2023-01-21T06:44:17.569Z,-0.60
2023-01-21T06:44:49.366Z,-0.60
2023-01-21T06:45:22.271Z,-0.60
2023-01-21T06:45:54.257Z,-0.60
2023-01-21T06:46:26.112Z,-0.50
2023-01-21T06:47:00.914Z,-0.50
2023-01-21T06:47:33.214Z,-0.40
2023-01-21T06:48:06.462Z,-0.40
2023-01-21T06:48:38.298Z,-0.40
2023-01-21T06:49:10.108Z,-0.40
2023-01-21T06:49:43.257Z,-0.30
2023-01-21T06:50:18.023Z,-0.30
2023-01-21T06:50:50.028Z,-0.30
2023-01-21T06:51:22.895Z,-0.30
2023-01-21T06:51:54.718Z,-0.30
2023-01-21T06:52:26.621Z,-0.30
2023-01-21T06:53:00.716Z,-0.30
2023-01-21T06:53:32.510Z,-0.30
2023-01-21T06:54:04.618Z,-0.30
2023-01-21T06:54:37.399Z,-0.20
2023-01-21T06:55:09.576Z,-0.30
2023-01-21T06:55:41.515Z,-0.30
2023-01-21T06:56:14.316Z,-0.30
2023-01-21T06:56:46.135Z,-0.30
2023-01-21T06:57:18.009Z,-0.40
2023-01-21T06:57:50.806Z,-0.30
2023-01-21T06:58:22.659Z,-0.30
2023-01-21T06:58:54.490Z,-0.30
2023-01-21T06:59:27.303Z,-0.30
2023-01-21T06:59:59.191Z,-0.30
2023-01-21T07:00:32.161Z,-0.30
2023-01-21T07:01:04.096Z,-0.20
2023-01-21T07:01:35.969Z,-0.20
2023-01-21T07:02:11.099Z,-0.20
2023-01-21T07:02:42.978Z,-0.20
2023-01-21T07:03:14.870Z,-0.20
2023-01-21T07:03:47.633Z,-0.30
2023-01-21T07:04:19.460Z,-0.30
2023-01-21T07:04:51.382Z,-0.30
2023-01-21T07:05:24.470Z,-0.30
2023-01-21T07:05:56.309Z,-0.20
2023-01-21T07:06:28.136Z,-0.20
2023-01-21T07:07:00.936Z,-0.30
2023-01-21T07:07:32.779Z,-0.30
2023-01-21T07:08:07.074Z,-0.30
2023-01-21T07:08:38.968Z,-0.30
2023-01-21T07:09:11.097Z,-0.30
2023-01-21T07:09:43.971Z,-0.30
2023-01-21T07:10:16.558Z,-0.30
2023-01-21T07:10:49.641Z,-0.30
2023-01-21T07:11:21.441Z,-0.30
2023-01-21T07:11:53.303Z,-0.30
2023-01-21T07:12:26.179Z,-0.30
2023-01-21T07:12:58.059Z,-0.20
2023-01-21T07:13:29.887Z,-0.20
2023-01-21T07:14:02.707Z,-0.20
2023-01-21T07:14:34.580Z,-0.20
2023-01-21T07:15:07.976Z,-0.10
2023-01-21T07:15:40.808Z,-0.10
2023-01-21T07:16:12.660Z,0.00
2023-01-21T07:16:44.544Z,0.00
2023-01-21T07:17:17.383Z,0.00
2023-01-21T07:17:49.262Z,0.00
2023-01-21T07:18:21.071Z,0.00
2023-01-21T07:18:54.019Z,0.00
2023-01-21T07:19:25.917Z,0.00
2023-01-21T07:19:57.720Z,0.00
2023-01-21T07:20:30.655Z,0.00
2023-01-21T07:21:02.726Z,0.00
2023-01-21T07:21:34.641Z,-0.10
2023-01-21T07:22:07.772Z,-0.10
2023-01-21T07:22:39.854Z,-0.10
2023-01-21T07:23:13.991Z,0.00
2023-01-21T07:23:46.595Z,-0.10
2023-01-21T07:24:18.607Z,0.00
2023-01-21T07:24:51.370Z,-0.10
2023-01-21T07:25:23.300Z,-0.10
2023-01-21T07:25:55.078Z,0.00
2023-01-21T07:26:27.907Z,0.00
2023-01-21T07:26:59.745Z,0.00
2023-01-21T07:27:32.528Z,0.00
2023-01-21T07:28:04.543Z,0.00
2023-01-21T07:28:36.467Z,0.00
2023-01-21T07:29:09.618Z,0.00
2023-01-21T07:29:41.505Z,0.10
2023-01-21T07:30:17.001Z,0.00
2023-01-21T07:30:50.093Z,0.00
2023-01-21T07:31:22.111Z,0.00
2023-01-21T07:31:54.068Z,-0.10
2023-01-21T07:32:26.877Z,-0.10
2023-01-21T07:32:58.696Z,-0.20